Estherville, IA

7:16 AM CDT on August 28, 2014 (GMT -0500)
Estherville Municipal | Change Station
CLOSE
Current Station
Airport
Location: Estherville,
Elevation: 1316 ft
Nearby Weather Stations

Elev 1316 ft 43.40 °N, 94.75 °W | Updated 4 minutes ago

Light Rain
Light Rain Mist
62 °F
Feels Like 62 °F
N
8
Wind Variable Wind from ESE

Today
High -- | Low -- °F
--% Chance of Precip.
Yesterday
High -- | Low -- °F
Precip. -- in
6:38 AM 8:01 PM
Waxing Crescent, 8% visible
Pressure 30.04 in
Visibility 6.0 miles
Clouds Mostly Cloudy 2500 ft
Mostly Cloudy 7500 ft
Overcast 9000 ft
Dew Point 62 °F
Humidity 100%
Rainfall 0.02 in
Snow Depth Not available.
UV 0 out of 12
Pollen 3.90 out of 12
Air Quality Not available.
Flu Activity Not available.
SPECI KEST 281212Z AUTO 12007KT 6SM -RA BR BKN025 BKN075 OVC090 17/17 A3004 RMK AO2 P0001 T01670167

More Conditions Fewer Conditions

Pressure 30.04 in
Visibility 6.0 miles
Clouds Mostly Cloudy 2500 ft
Mostly Cloudy 7500 ft
Overcast 9000 ft
Dew Point 62 °F
Humidity 100%
Rainfall 0.02 in
Snow Depth Not available.
UV 0 out of 12
Pollen 3.90 out of 12
Air Quality Not available.
Flu Activity Not available.
SPECI KEST 281212Z AUTO 12007KT 6SM -RA BR BKN025 BKN075 OVC090 17/17 A3004 RMK AO2 P0001 T01670167

More Conditions Fewer Conditions

10-Day Weather Forecast

Almanac

Astronomy

Aug. 28, 2014 Rise Set
Actual Time 6:38 AM CDT 8:01 PM CDT
Civil Twilight 6:09 AM CDT 8:30 PM CDT
Nautical Twilight 5:33 AM CDT 9:06 PM CDT
Astronomical Twilight 4:55 AM CDT 9:44 PM CDT
Moon 9:38 AM CDT 9:18 PM CDT
Length of Visible Light 14h 21m
Length of Day
13h 22m
Tomorrow will be 2m 48s shorter.
Waxing Crescent, 8% of the Moon is Illuminated
Today
Waxing Crescent
Sep 2
First Quarter
Sep 8
Full
Sep 15
Last Quarter
Sep 24
New

Today's Extremes

State Highs State Lows

Community

WunderPhotos

Upload Photos

1,747,932 photos uploaded!

Nearby

Snow Depth

Station Depth Elevation
No new snow has been reported.

Earthquake Activity

City Distance Mag. Time & Date
No recent earthquake activity has been reported nearby.
Minimum magnitude displayed is 2.5.

Coastal Water Temperatures

Place Temperature
No Stations Reporting

Nearby Weather Stations